Time;durP1;ratioP1;P1;durP2;ratioP2;P2;SDS_P1;SDS_P2;PMS_P1;PMS_P2;Temp;Humidity;BMP_temperature;BMP_pressure;BME280_temperature;BME280_humidity;BME280_pressure;Samples;Min_cycle;Max_cycle;Signal;HPM_P1;HPM_P2
2022/05/01 00:02:08;;;;;;;55.40;21.90;;;;;;;6.14;50.97;99482.46;108171;1287;23171;-81
2022/05/01 00:05:13;;;;;;;56.70;23.50;;;;;;;6.16;51.05;99477.77;108262;1286;22618;-81
2022/05/01 00:07:43;;;;;;;48.80;20.90;;;;;;;6.20;51.18;99477.08;108369;1286;22593;-81
2022/05/01 00:10:54;;;;;;;54.30;22.90;;;;;;;6.17;51.44;99473.83;108238;1287;22318;-81
2022/05/01 00:13:44;;;;;;;48.70;21.00;;;;;;;6.07;51.86;99479.42;107810;1292;22401;-81
2022/05/01 00:16:36;;;;;;;35.80;15.40;;;;;;;5.94;51.75;99476.13;107517;1293;22526;-81
2022/05/01 00:19:24;;;;;;;;;;;;;;;;;;;;;
2022/05/01 00:22:49;;;;;;;;;;;;;;;;;;;;;
2022/05/01 00:25:54;;;;;;;;;;;;;;;;;;;;;
2022/05/01 00:28:53;;;;;;;34.10;15.50;;;;;;;5.80;52.24;99467.77;107747;1293;22428;-81
2022/05/01 00:31:33;;;;;;;;;;;;;;;;;;;;;
2022/05/01 00:38:10;;;;;;;55.70;21.50;;;;;;;5.79;51.84;99456.33;108634;1284;22406;-81
2022/05/01 00:44:39;;;;;;;100.80;37.60;;;;;;;5.84;52.10;99452.91;109157;1277;22350;-81
2022/05/01 00:48:06;;;;;;;80.90;33.60;;;;;;;5.85;52.19;99447.21;108571;1285;23137;-81
2022/05/01 00:50:48;;;;;;;75.60;32.10;;;;;;;5.85;52.49;99443.50;108531;1285;23136;-81
2022/05/01 00:53:19;;;;;;;65.40;27.70;;;;;;;5.84;52.28;99444.95;108333;1285;22591;-81
2022/05/01 00:55:54;;;;;;;57.40;26.30;;;;;;;5.82;52.27;99447.71;108582;1284;22302;-81
2022/05/01 00:58:49;;;;;;;45.10;20.80;;;;;;;5.68;52.79;99449.06;108552;1285;22400;-81
2022/05/01 01:01:33;;;;;;;57.70;24.10;;;;;;;5.52;52.51;99451.17;108230;1286;22208;-80
2022/05/01 01:04:09;;;;;;;68.50;27.90;;;;;;;5.52;52.72;99453.69;108364;1285;22360;-80
2022/05/01 01:06:38;;;;;;;55.40;23.90;;;;;;;5.58;52.78;99458.52;108534;1284;22347;-81
2022/05/01 01:09:06;;;;;;;51.60;22.30;;;;;;;5.65;52.91;99458.73;108068;1287;23254;-81
2022/05/01 01:11:39;;;;;;;50.50;23.30;;;;;;;5.63;52.84;99457.39;108305;1285;22680;-81
2022/05/01 01:14:44;;;;;;;60.50;26.70;;;;;;;5.62;52.75;99456.41;108162;1287;22466;-81
2022/05/01 01:17:13;;;;;;;64.30;29.40;;;;;;;5.57;52.82;99453.45;107632;1292;23332;-82
2022/05/01 01:19:43;;;;;;;57.90;25.60;;;;;;;5.50;53.08;99453.95;107628;1293;22455;-81
2022/05/01 01:22:10;;;;;;;55.80;24.60;;;;;;;5.47;53.39;99452.31;107821;1290;22632;-82
2022/05/01 01:24:50;;;;;;;50.40;21.60;;;;;;;5.44;53.24;99450.35;107945;1287;22437;-81
2022/05/01 01:27:27;;;;;;;46.60;20.10;;;;;;;5.35;53.37;99452.69;108462;1286;22496;-81
2022/05/01 01:32:57;;;;;;;43.70;19.40;;;;;;;5.26;53.81;99457.66;108488;1286;22415;-81
2022/05/01 01:35:26;;;;;;;44.70;19.30;;;;;;;5.23;53.63;99456.94;108485;1287;22351;-81
2022/05/01 01:38:06;;;;;;;39.70;18.70;;;;;;;5.20;53.71;99453.70;108473;1287;22394;-82
2022/05/01 01:41:12;;;;;;;44.70;19.40;;;;;;;5.20;54.00;99458.12;108363;1286;23048;-81
2022/05/01 01:43:51;;;;;;;42.70;19.00;;;;;;;5.22;53.79;99457.33;108259;1287;23167;-81
2022/05/01 01:46:22;;;;;;;42.10;19.90;;;;;;;5.26;53.66;99455.73;108473;1286;22262;-81
2022/05/01 01:48:50;;;;;;;47.70;20.50;;;;;;;5.28;53.52;99451.75;109220;1279;22152;-81
2022/05/01 01:51:23;;;;;;;101.00;40.40;;;;;;;5.27;53.85;99450.37;109205;1279;23216;-81
2022/05/01 01:53:52;;;;;;;98.90;36.70;;;;;;;5.26;53.63;99452.02;109303;1277;22274;-81
2022/05/01 01:56:27;;;;;;;67.20;28.10;;;;;;;5.23;53.94;99450.40;109347;1278;22278;-81
2022/05/01 01:59:37;;;;;;;96.70;37.20;;;;;;;5.19;54.09;99450.02;109568;1277;22863;-81
2022/05/01 02:02:03;;;;;;;66.30;25.30;;;;;;;5.16;53.75;99448.93;109365;1277;22344;-81
2022/05/01 02:04:30;;;;;;;51.40;22.40;;;;;;;5.10;53.83;99446.55;109209;1277;22365;-81
2022/05/01 02:06:59;;;;;;;49.30;22.10;;;;;;;5.06;53.92;99447.77;108986;1279;22356;-81
2022/05/01 02:09:42;;;;;;;;;;;;;;;;;;;;;
2022/05/01 02:12:09;;;;;;;67.10;27.50;;;;;;;5.06;54.19;99445.13;109282;1277;22305;-81
2022/05/01 02:14:37;;;;;;;65.90;26.30;;;;;;;5.08;54.23;99446.06;109400;1277;22435;-81
2022/05/01 02:17:16;;;;;;;63.70;25.60;;;;;;;5.11;54.48;99449.33;109242;1277;22315;-81
2022/05/01 02:20:00;;;;;;;40.80;17.80;;;;;;;5.02;54.57;99447.22;109416;1277;22350;-81
2022/05/01 02:22:32;;;;;;;41.20;18.60;;;;;;;4.94;54.47;99446.55;109506;1277;22386;-81
2022/05/01 02:25:34;;;;;;;;;;;;;;;;;;;;;
2022/05/01 02:28:04;;;;;;;40.50;19.20;;;;;;;4.80;54.83;99440.59;109237;1280;22197;-81
2022/05/01 02:31:11;;;;;;;45.00;20.80;;;;;;;4.83;54.99;99439.57;109273;1277;22371;-81
2022/05/01 02:33:50;;;;;;;;;;;;;;;;;;;;;
2022/05/01 02:36:19;;;;;;;40.30;18.90;;;;;;;4.82;54.91;99437.34;109313;1277;22699;-81
2022/05/01 02:38:46;;;;;;;46.00;19.70;;;;;;;4.82;55.11;99435.75;109278;1277;22384;-81
2022/05/01 02:41:13;;;;;;;41.00;19.20;;;;;;;4.80;55.14;99434.09;109270;1277;22456;-81
2022/05/01 02:43:43;;;;;;;46.00;21.00;;;;;;;4.84;55.09;99434.78;109293;1277;22399;-82
2022/05/01 02:46:10;;;;;;;45.30;19.70;;;;;;;4.84;54.87;99430.35;109244;1277;23069;-81
2022/05/01 02:49:01;;;;;;;74.30;34.60;;;;;;;4.76;55.02;99436.20;109257;1280;22474;-81
2022/05/01 02:51:52;;;;;;;52.70;25.50;;;;;;;4.69;54.89;99436.49;109157;1279;22348;-81
2022/05/01 02:54:37;;;;;;;53.60;21.90;;;;;;;4.60;54.98;99435.11;109371;1276;22321;-80
2022/05/01 02:57:07;;;;;;;54.30;21.40;;;;;;;4.51;54.93;99436.01;109357;1277;22579;-81
2022/05/01 02:59:34;;;;;;;47.60;21.10;;;;;;;4.38;55.10;99436.70;109369;1277;22146;-81
2022/05/01 03:02:01;;;;;;;72.70;26.60;;;;;;;4.29;55.18;99434.05;109239;1277;22439;-81
2022/05/01 03:04:30;;;;;;;95.20;34.10;;;;;;;4.26;55.13;99429.61;109532;1277;22150;-81
2022/05/01 03:07:18;;;;;;;67.10;25.50;;;;;;;4.28;55.44;99429.88;109316;1277;22913;-82
2022/05/01 03:10:30;;;;;;;48.00;21.80;;;;;;;4.30;55.33;99430.48;109547;1275;22358;-81
2022/05/01 03:12:56;;;;;;;49.50;19.60;;;;;;;4.38;55.45;99429.30;109362;1277;22391;-81
2022/05/01 03:15:24;;;;;;;45.40;20.70;;;;;;;4.40;55.39;99424.65;109236;1277;23370;-81
2022/05/01 03:23:38;;;;;;;43.90;19.80;;;;;;;4.32;56.22;99424.42;109238;1277;22388;-81
2022/05/01 03:26:29;;;;;;;44.90;19.10;;;;;;;4.23;55.98;99426.23;109269;1277;22951;-80
2022/05/01 03:29:14;;;;;;;42.50;19.00;;;;;;;4.20;56.10;99427.39;109290;1277;22485;-81
2022/05/01 03:31:48;;;;;;;36.00;17.30;;;;;;;4.29;56.11;99428.80;109025;1279;22372;-81
2022/05/01 03:34:31;;;;;;;41.20;17.40;;;;;;;4.39;56.13;99430.52;109251;1277;22375;-80
2022/05/01 03:37:03;;;;;;;42.20;18.90;;;;;;;4.40;56.23;99428.20;109368;1277;22334;-81
2022/05/01 03:39:30;;;;;;;40.10;18.40;;;;;;;4.38;56.31;99430.88;109015;1279;22321;-80
2022/05/01 03:41:57;;;;;;;42.80;19.80;;;;;;;4.41;56.27;99429.91;109539;1277;23229;-80
2022/05/01 03:44:31;;;;;;;37.60;18.40;;;;;;;4.39;56.17;99431.05;109222;1277;22281;-81
2022/05/01 03:48:11;;;;;;;;;;;;;;;;;;;;;
2022/05/01 03:51:08;;;;;;;;;;;;;;;;;;;;;
2022/05/01 03:53:59;;;;;;;;;;;;;;;;;;;;;
2022/05/01 03:57:33;;;;;;;38.80;17.20;;;;;;;4.57;56.23;99434.17;108241;1288;22230;-80
2022/05/01 04:04:25;;;;;;;;;;;;;;;;;;;;;
2022/05/01 04:08:02;;;;;;;36.40;16.60;;;;;;;5.00;56.61;99438.65;107307;1295;23228;-81
2022/05/01 04:12:14;;;;;;;32.40;16.30;;;;;;;5.13;56.36;99440.91;107114;1300;22753;-81
2022/05/01 04:18:52;;;;;;;;;;;;;;;;;;;;;
2022/05/01 04:22:03;;;;;;;27.30;12.60;;;;;;;5.51;56.34;99436.40;105161;1320;22251;-81
2022/05/01 04:25:03;;;;;;;30.00;14.20;;;;;;;5.76;56.55;99439.86;105264;1320;22430;-81
2022/05/01 04:27:53;;;;;;;30.40;14.50;;;;;;;6.01;56.66;99439.62;105395;1316;22640;-81
2022/05/01 04:30:22;;;;;;;27.50;13.70;;;;;;;6.16;56.36;99441.48;105680;1316;22277;-81
2022/05/01 04:32:53;;;;;;;33.10;14.50;;;;;;;6.31;56.58;99440.82;105706;1316;22247;-81
2022/05/01 04:35:25;;;;;;;29.80;16.00;;;;;;;6.42;56.55;99442.23;105608;1316;22896;-81
2022/05/01 04:37:52;;;;;;;36.00;18.00;;;;;;;6.51;56.33;99442.99;105746;1314;22738;-81
2022/05/01 04:40:31;;;;;;;;;;;;;;;;;;;;;
2022/05/01 04:43:10;;;;;;;30.80;13.90;;;;;;;6.81;56.75;99447.73;105767;1314;23268;-81
2022/05/01 04:45:43;;;;;;;24.90;12.60;;;;;;;7.02;56.53;99445.77;106074;1308;22881;-81
2022/05/01 04:48:12;;;;;;;23.40;12.30;;;;;;;7.15;56.27;99447.88;106908;1299;22402;-81
2022/05/01 04:50:44;;;;;;;22.70;10.60;;;;;;;7.26;56.00;99450.68;107054;1293;22308;-82
2022/05/01 04:53:13;;;;;;;20.20;10.40;;;;;;;7.42;56.17;99453.04;107399;1293;22441;-81
2022/05/01 04:55:53;;;;;;;23.30;11.20;;;;;;;7.53;56.17;99453.35;108469;1277;23156;-81
2022/05/01 04:58:23;;;;;;;21.40;11.30;;;;;;;7.59;55.69;99451.42;109084;1279;22252;-81
2022/05/01 05:00:50;;;;;;;22.50;11.30;;;;;;;7.64;55.62;99453.48;109387;1277;22192;-81
2022/05/01 05:03:17;;;;;;;21.20;11.20;;;;;;;7.74;55.59;99452.40;109245;1277;22285;-81
2022/05/01 05:05:44;;;;;;;23.20;11.70;;;;;;;8.00;55.96;99453.30;109113;1278;22436;-81
2022/05/01 05:10:57;;;;;;;23.80;11.60;;;;;;;8.43;55.91;99444.63;109249;1277;22344;-82
2022/05/01 05:13:27;;;;;;;21.50;11.10;;;;;;;8.56;55.90;99445.70;109386;1277;22292;-81
2022/05/01 05:15:58;;;;;;;20.70;11.40;;;;;;;8.74;55.77;99447.86;109400;1278;22393;-81
2022/05/01 05:18:26;;;;;;;25.30;12.40;;;;;;;8.92;55.73;99444.30;109250;1277;22355;-81
2022/05/01 05:20:56;;;;;;;23.70;12.60;;;;;;;9.13;55.73;99444.30;109248;1278;23081;-81
2022/05/01 05:23:23;;;;;;;27.20;12.80;;;;;;;9.41;55.61;99449.34;109184;1278;22219;-81
2022/05/01 05:25:50;;;;;;;31.60;14.60;;;;;;;9.57;55.52;99443.91;109438;1277;22258;-81
2022/05/01 05:28:27;;;;;;;30.10;15.00;;;;;;;9.70;55.33;99442.56;109207;1278;22371;-82
2022/05/01 05:30:54;;;;;;;26.20;13.90;;;;;;;9.80;55.00;99444.41;109429;1278;22261;-81
2022/05/01 05:33:22;;;;;;;30.40;14.20;;;;;;;9.84;55.04;99450.55;109192;1278;22145;-81
2022/05/01 05:35:52;;;;;;;31.20;15.20;;;;;;;10.02;55.17;99448.39;109240;1278;22335;-81
2022/05/01 05:38:22;;;;;;;30.70;14.70;;;;;;;10.33;55.38;99447.63;109095;1278;22210;-83
2022/05/01 05:40:49;;;;;;;31.70;14.90;;;;;;;10.67;55.40;99447.55;109190;1278;22221;-84
2022/05/01 05:43:19;;;;;;;28.90;14.90;;;;;;;10.99;55.32;99448.61;109207;1277;22353;-83
2022/05/01 05:45:46;;;;;;;29.90;15.50;;;;;;;11.30;55.29;99449.31;109174;1277;22355;-83
2022/05/01 05:48:16;;;;;;;33.40;15.70;;;;;;;11.54;55.10;99453.52;109157;1278;22349;-82
2022/05/01 05:50:43;;;;;;;32.40;15.80;;;;;;;11.86;55.29;99449.19;109195;1278;22866;-82
2022/05/01 05:53:10;;;;;;;36.20;17.70;;;;;;;12.21;55.21;99452.60;109436;1277;22216;-83
2022/05/01 05:55:45;;;;;;;29.90;15.60;;;;;;;12.49;54.95;99449.30;109462;1277;22285;-83
2022/05/01 05:58:16;;;;;;;30.30;15.20;;;;;;;12.82;54.66;99448.84;109390;1278;22719;-84
2022/05/01 06:00:43;;;;;;;28.00;14.70;;;;;;;12.96;54.47;99453.48;109202;1277;22428;-83
2022/05/01 06:03:15;;;;;;;26.90;15.00;;;;;;;13.07;54.56;99447.97;109243;1278;23152;-83
2022/05/01 06:05:42;;;;;;;29.00;17.00;;;;;;;13.31;54.49;99450.66;109513;1277;22375;-83
2022/05/01 06:08:11;;;;;;;32.30;17.30;;;;;;;13.42;54.41;99450.49;109244;1278;22425;-83
2022/05/01 06:10:44;;;;;;;29.70;17.20;;;;;;;13.58;54.46;99451.20;109178;1278;22468;-83
2022/05/01 06:13:11;;;;;;;36.20;20.10;;;;;;;13.82;54.36;99448.98;109077;1279;23060;-83
2022/05/01 06:15:43;;;;;;;32.00;19.40;;;;;;;14.01;54.22;99453.48;109241;1278;22421;-83
2022/05/01 06:18:31;;;;;;;40.30;22.20;;;;;;;14.25;54.23;99453.86;109414;1277;22453;-83
2022/05/01 06:20:58;;;;;;;40.60;23.30;;;;;;;14.58;53.96;99453.02;109488;1277;22321;-83
2022/05/01 06:23:25;;;;;;;42.50;24.50;;;;;;;14.77;53.75;99453.04;109232;1278;22463;-83
2022/05/01 06:25:55;;;;;;;46.40;27.10;;;;;;;15.07;54.12;99454.48;109426;1278;22593;-84
2022/05/01 06:28:22;;;;;;;47.90;26.70;;;;;;;15.39;54.03;99454.27;109498;1277;22466;-83
2022/05/01 06:30:50;;;;;;;32.70;18.90;;;;;;;15.67;53.78;99455.10;109239;1277;23161;-84
2022/05/01 06:33:21;;;;;;;36.20;20.40;;;;;;;15.81;52.85;99452.27;109165;1278;22439;-83
2022/05/01 06:35:50;;;;;;;28.20;16.50;;;;;;;15.83;52.90;99450.33;109180;1279;22446;-83
2022/05/01 06:38:25;;;;;;;37.00;16.80;;;;;;;15.62;52.38;99456.07;109491;1278;22475;-83
2022/05/01 06:40:52;;;;;;;34.30;18.80;;;;;;;15.58;52.87;99458.54;109085;1279;22450;-84
2022/05/01 06:43:27;;;;;;;33.10;17.90;;;;;;;15.73;53.17;99459.27;109115;1278;23028;-82
2022/05/01 06:45:57;;;;;;;34.30;17.60;;;;;;;15.83;52.98;99463.57;109228;1279;22344;-83
2022/05/01 06:48:24;;;;;;;29.70;16.40;;;;;;;15.84;52.87;99455.92;109190;1278;23356;-82
2022/05/01 06:50:51;;;;;;;28.50;16.00;;;;;;;15.91;52.70;99459.28;109338;1278;22551;-82
2022/05/01 06:53:21;;;;;;;28.20;15.90;;;;;;;15.99;52.88;99453.23;109448;1278;23150;-83
2022/05/01 06:55:49;;;;;;;26.60;15.50;;;;;;;16.08;52.78;99455.98;109152;1278;23693;-84
2022/05/01 06:58:16;;;;;;;27.50;16.10;;;;;;;16.16;52.53;99455.10;109172;1279;22345;-84
2022/05/01 07:00:43;;;;;;;29.50;15.80;;;;;;;16.26;52.49;99461.38;109171;1279;23471;-83
2022/05/01 07:03:20;;;;;;;27.00;15.50;;;;;;;16.32;52.30;99460.09;109127;1278;22455;-83
2022/05/01 07:05:52;;;;;;;28.40;15.30;;;;;;;16.39;52.20;99458.60;109165;1278;22417;-83
2022/05/01 07:08:19;;;;;;;26.00;14.50;;;;;;;16.44;52.17;99465.39;109163;1278;23014;-84
2022/05/01 07:10:50;;;;;;;23.70;13.80;;;;;;;16.59;51.79;99459.13;109410;1278;23104;-84
2022/05/01 07:13:24;;;;;;;23.10;12.50;;;;;;;16.73;51.89;99461.15;109496;1278;23161;-84
2022/05/01 07:15:54;;;;;;;25.80;13.70;;;;;;;16.88;51.60;99464.06;109407;1278;22990;-83
2022/05/01 07:18:33;;;;;;;24.80;12.40;;;;;;;16.88;51.59;99455.94;109149;1278;22521;-83
2022/05/01 07:21:00;;;;;;;22.30;12.60;;;;;;;16.97;51.12;99458.04;109307;1278;22951;-82
2022/05/01 07:23:28;;;;;;;25.90;13.40;;;;;;;16.92;51.20;99455.95;109433;1278;23072;-83
2022/05/01 07:25:55;;;;;;;24.90;13.60;;;;;;;16.88;51.40;99455.77;109245;1279;22391;-83
2022/05/01 07:28:22;;;;;;;22.70;12.90;;;;;;;16.85;51.07;99457.31;109409;1278;22606;-83
2022/05/01 07:30:50;;;;;;;23.90;13.10;;;;;;;16.90;51.22;99460.48;108808;1279;22199;-84
2022/05/01 07:33:19;;;;;;;21.80;13.70;;;;;;;16.90;50.97;99457.09;109379;1279;22461;-85
2022/05/01 07:35:50;;;;;;;21.20;12.10;;;;;;;16.87;51.50;99458.23;109417;1278;22286;-84
2022/05/01 07:38:17;;;;;;;21.90;12.20;;;;;;;17.07;51.31;99453.13;109373;1277;22435;-82
2022/05/01 07:40:48;;;;;;;24.50;13.00;;;;;;;17.25;51.17;99454.33;109257;1278;22990;-82
2022/05/01 07:43:16;;;;;;;24.20;13.20;;;;;;;17.38;50.83;99455.11;109224;1279;23088;-81
2022/05/01 07:45:47;;;;;;;22.80;12.30;;;;;;;17.36;50.68;99452.98;109401;1278;22371;-82
2022/05/01 07:48:23;;;;;;;22.10;11.90;;;;;;;17.45;50.46;99453.51;109135;1278;22419;-83
2022/05/01 07:50:50;;;;;;;25.10;13.20;;;;;;;17.59;50.86;99448.98;109423;1277;22922;-82
2022/05/01 07:53:17;;;;;;;24.20;12.80;;;;;;;17.79;50.46;99457.54;109392;1279;23206;-81
2022/05/01 07:55:47;;;;;;;23.90;13.50;;;;;;;17.80;50.33;99448.98;109434;1278;22316;-83
2022/05/01 07:58:20;;;;;;;26.20;13.60;;;;;;;17.92;50.53;99452.73;109077;1279;22174;-84
2022/05/01 08:00:48;;;;;;;24.20;13.10;;;;;;;17.88;50.06;99447.28;109242;1279;22195;-81
2022/05/01 08:06:16;;;;;;;23.90;13.00;;;;;;;18.24;50.63;99446.49;109307;1277;22986;-82
2022/05/01 08:08:52;;;;;;;23.10;12.80;;;;;;;18.40;50.26;99445.36;109183;1277;22346;-85
2022/05/01 08:11:22;;;;;;;26.00;13.50;;;;;;;18.42;50.44;99442.95;109192;1278;22204;-82
2022/05/01 08:13:55;;;;;;;24.40;13.60;;;;;;;18.49;50.15;99440.08;109196;1279;23067;-83
2022/05/01 08:16:22;;;;;;;27.50;13.70;;;;;;;18.50;50.11;99434.23;109268;1279;22478;-82
2022/05/01 08:21:36;;;;;;;27.80;14.70;;;;;;;18.74;50.31;99432.07;109440;1278;22416;-82
2022/05/01 08:24:51;;;;;;;27.80;15.70;;;;;;;18.92;50.30;99437.56;109179;1277;22395;-82
2022/05/01 08:27:40;;;;;;;24.20;13.70;;;;;;;19.07;50.16;99427.05;109375;1277;22385;-83
2022/05/01 08:30:53;;;;;;;;;;;;;;;;;;;;;
2022/05/01 08:33:33;;;;;;;25.00;13.40;;;;;;;19.57;49.90;99429.75;108519;1285;23331;-81
2022/05/01 08:36:05;;;;;;;22.60;12.60;;;;;;;19.71;49.64;99430.92;108417;1285;22488;-83
2022/05/01 08:38:54;;;;;;;21.50;13.10;;;;;;;19.78;49.62;99425.03;108455;1285;22454;-83
2022/05/01 08:41:31;;;;;;;21.40;13.10;;;;;;;19.78;49.27;99430.25;108442;1285;22912;-83
2022/05/01 08:44:00;;;;;;;22.50;12.80;;;;;;;19.85;49.19;99425.14;108279;1285;22426;-84
2022/05/01 08:46:45;;;;;;;26.10;12.60;;;;;;;19.96;49.05;99425.27;108371;1285;22496;-84
2022/05/01 08:49:16;;;;;;;27.10;14.40;;;;;;;20.13;49.34;99420.95;108208;1287;22454;-84
2022/05/01 08:51:46;;;;;;;22.10;12.80;;;;;;;20.31;48.90;99427.09;108361;1287;22518;-83
2022/05/01 08:54:19;;;;;;;22.70;14.10;;;;;;;20.39;49.17;99426.34;108235;1286;22356;-82
2022/05/01 08:56:49;;;;;;;21.70;13.70;;;;;;;20.59;49.52;99422.13;108350;1287;22392;-83
2022/05/01 08:59:20;;;;;;;24.30;13.50;;;;;;;20.80;49.14;99420.64;108381;1285;22415;-84
2022/05/01 09:01:54;;;;;;;22.50;14.30;;;;;;;20.97;48.79;99421.11;108403;1285;22520;-83
2022/05/01 09:04:25;;;;;;;26.20;14.50;;;;;;;21.05;48.79;99419.45;108400;1284;23132;-83
2022/05/01 09:06:53;;;;;;;22.00;13.10;;;;;;;21.10;48.74;99416.94;108277;1285;22458;-83
2022/05/01 09:09:21;;;;;;;23.80;12.70;;;;;;;21.20;48.51;99414.86;108448;1278;22483;-83
2022/05/01 09:15:01;;;;;;;21.70;12.50;;;;;;;21.36;48.23;99405.97;109418;1277;22218;-84
2022/05/01 09:17:28;;;;;;;25.10;13.40;;;;;;;21.40;48.31;99406.77;109366;1277;22526;-83
2022/05/01 09:20:10;;;;;;;22.20;13.00;;;;;;;21.51;48.16;99409.47;109167;1278;22729;-83
2022/05/01 09:22:52;;;;;;;20.60;12.20;;;;;;;21.63;47.93;99412.17;109366;1277;22475;-83
2022/05/01 09:25:24;;;;;;;23.40;11.90;;;;;;;21.66;47.30;99411.84;109168;1278;22272;-83
2022/05/01 09:28:01;;;;;;;18.80;10.70;;;;;;;21.63;47.72;99405.05;109428;1279;22232;-86
2022/05/01 09:30:38;;;;;;;19.00;10.20;;;;;;;21.70;47.32;99405.38;109367;1277;22607;-90
2022/05/01 09:33:15;;;;;;;21.20;11.60;;;;;;;21.69;46.90;99395.45;109212;1278;22799;-83
2022/05/01 09:35:43;;;;;;;20.40;11.60;;;;;;;21.73;47.19;99402.67;109516;1277;22196;-85
2022/05/01 09:38:14;;;;;;;18.90;10.50;;;;;;;21.82;46.95;99398.88;109166;1279;22418;-85
2022/05/01 09:40:43;;;;;;;17.50;9.80;;;;;;;21.90;47.02;99399.33;109418;1278;22471;-83
2022/05/01 09:43:47;;;;;;;18.60;10.50;;;;;;;22.05;46.94;99395.89;109422;1278;22267;-84
2022/05/01 09:46:17;;;;;;;18.10;9.40;;;;;;;22.26;46.36;99398.08;109190;1278;22535;-86
2022/05/01 09:48:59;;;;;;;17.10;9.30;;;;;;;22.30;46.24;99396.02;109549;1277;22477;-84
2022/05/01 09:51:28;;;;;;;17.60;9.90;;;;;;;22.37;46.18;99390.61;109108;1278;22323;-84
2022/05/01 09:53:56;;;;;;;17.80;8.50;;;;;;;22.41;45.88;99395.20;109402;1278;23174;-83
2022/05/01 09:56:26;;;;;;;19.40;9.80;;;;;;;22.47;46.08;99389.16;109406;1278;23240;-84
2022/05/01 09:59:01;;;;;;;18.50;9.80;;;;;;;22.54;45.83;99392.53;109431;1278;22358;-84
2022/05/01 10:01:29;;;;;;;18.90;8.90;;;;;;;22.62;45.73;99391.77;109530;1277;22474;-83
2022/05/01 10:04:00;;;;;;;18.50;10.30;;;;;;;22.69;45.71;99391.98;109216;1278;22451;-83
2022/05/01 10:06:29;;;;;;;17.90;9.50;;;;;;;22.80;46.11;99394.80;109397;1278;22378;-84
2022/05/01 10:08:56;;;;;;;16.10;8.80;;;;;;;22.81;45.55;99389.60;109188;1279;22674;-86
2022/05/01 10:11:29;;;;;;;21.60;11.20;;;;;;;22.79;45.42;99390.11;109401;1277;22472;-83
2022/05/01 10:14:04;;;;;;;24.40;12.80;;;;;;;22.71;45.44;99390.35;109206;1278;23216;-83
2022/05/01 10:16:33;;;;;;;17.60;9.90;;;;;;;22.78;45.62;99390.15;109420;1278;22427;-84
2022/05/01 10:19:05;;;;;;;16.70;9.10;;;;;;;22.84;45.30;99384.23;109517;1277;22441;-83
2022/05/01 10:21:34;;;;;;;17.10;8.60;;;;;;;22.83;44.86;99385.02;109548;1277;22685;-85
2022/05/01 10:24:01;;;;;;;29.10;12.90;;;;;;;22.71;44.70;99378.59;109411;1278;22993;-83
2022/05/01 10:26:41;;;;;;;16.80;9.10;;;;;;;22.73;44.92;99382.64;109197;1277;22553;-83
2022/05/01 10:32:21;;;;;;;20.90;10.70;;;;;;;22.77;44.94;99373.95;109156;1281;22365;-83
2022/05/01 10:33:09;;;;;;;21.80;11.20;;;;;;;23.08;45.13;99379.00;108620;1285;22584;-86
2022/05/01 10:35:57;;;;;;;18.20;8.30;;;;;;;23.21;44.69;99371.39;108454;1286;22590;-84
2022/05/01 10:38:41;;;;;;;23.80;13.50;;;;;;;23.26;44.25;99369.41;108627;1285;23171;-83
2022/05/01 10:41:10;;;;;;;18.40;9.40;;;;;;;23.19;44.11;99371.64;108396;1285;22265;-91
2022/05/01 10:43:38;;;;;;;17.00;8.70;;;;;;;23.13;43.99;99363.88;108633;1285;22432;-84
2022/05/01 10:46:25;;;;;;;16.00;8.90;;;;;;;23.01;43.85;99364.12;108248;1287;22512;-84
2022/05/01 10:48:54;;;;;;;23.20;11.90;;;;;;;23.04;44.30;99358.80;108588;1284;22384;-84
2022/05/01 10:51:27;;;;;;;17.40;9.40;;;;;;;23.24;44.01;99362.83;108347;1285;23203;-85
2022/05/01 10:54:15;;;;;;;19.60;10.00;;;;;;;23.35;43.75;99359.58;108404;1285;22698;-84
2022/05/01 10:56:50;;;;;;;18.10;9.30;;;;;;;23.20;42.98;99357.79;108453;1285;22463;-86
2022/05/01 10:59:29;;;;;;;16.40;8.40;;;;;;;23.10;43.17;99356.40;108586;1284;22426;-87
2022/05/01 11:01:58;;;;;;;17.60;9.40;;;;;;;23.05;42.34;99357.77;108595;1285;22621;-86
2022/05/01 11:04:28;;;;;;;17.60;8.80;;;;;;;22.82;42.65;99350.25;108401;1285;22412;-83
2022/05/01 11:06:59;;;;;;;17.10;9.30;;;;;;;22.87;42.74;99347.57;108561;1285;22375;-85
2022/05/01 11:09:26;;;;;;;19.60;11.50;;;;;;;22.95;42.63;99347.91;109607;1277;22301;-86
2022/05/01 11:11:56;;;;;;;20.10;9.80;;;;;;;22.91;42.29;99344.56;109255;1277;22345;-87
2022/05/01 11:14:33;;;;;;;18.40;9.90;;;;;;;22.71;42.02;99337.05;109199;1277;23158;-83
2022/05/01 11:17:03;;;;;;;18.80;10.10;;;;;;;22.63;42.26;99335.17;109372;1277;22612;-84
2022/05/01 11:19:34;;;;;;;19.90;10.70;;;;;;;22.65;42.29;99334.84;109282;1277;22142;-84
2022/05/01 11:22:07;;;;;;;22.50;11.60;;;;;;;22.66;42.12;99333.81;109269;1278;22554;-83
2022/05/01 11:24:42;;;;;;;20.80;10.40;;;;;;;22.65;42.31;99330.57;109265;1277;22412;-84
2022/05/01 11:27:14;;;;;;;20.30;10.10;;;;;;;22.80;42.39;99332.79;109045;1277;23103;-87
2022/05/01 11:30:06;;;;;;;19.20;11.30;;;;;;;22.94;41.98;99335.88;109387;1277;22355;-84
2022/05/01 11:32:45;;;;;;;28.10;16.70;;;;;;;22.99;42.32;99332.33;109565;1277;22407;-84
2022/05/01 11:35:13;;;;;;;21.70;10.70;;;;;;;23.17;42.13;99326.86;109589;1277;22348;-87
2022/05/01 11:38:06;;;;;;;22.70;14.40;;;;;;;23.35;41.90;99332.95;109507;1277;22625;-84
2022/05/01 11:40:33;;;;;;;20.50;10.70;;;;;;;23.39;41.28;99332.05;109093;1280;333628;-84
2022/05/01 11:43:16;;;;;;;18.50;10.00;;;;;;;23.26;41.18;99325.14;109372;1278;22430;-85
2022/05/01 11:45:45;;;;;;;22.30;11.40;;;;;;;23.23;41.22;99322.50;109048;1280;22477;-83
2022/05/01 11:48:16;;;;;;;21.80;11.00;;;;;;;23.13;40.67;99323.79;109385;1278;22493;-84
2022/05/01 11:50:45;;;;;;;16.70;9.40;;;;;;;23.09;41.01;99320.63;109245;1280;22309;-83
2022/05/01 11:53:17;;;;;;;17.30;10.10;;;;;;;23.12;41.46;99323.19;109367;1278;22426;-83
2022/05/01 12:04:33;;;;;;;19.30;10.00;;;;;;;23.10;40.79;99316.42;109115;1280;22445;-87
2022/05/01 12:07:09;;;;;;;16.50;10.00;;;;;;;23.11;40.36;99318.49;109077;1279;22641;-86
2022/05/01 12:09:40;;;;;;;19.70;12.10;;;;;;;23.00;40.27;99306.50;109073;1279;22319;-84
2022/05/01 12:12:12;;;;;;;19.30;11.00;;;;;;;23.08;40.53;99307.79;108860;1281;22356;-86
2022/05/01 12:14:43;;;;;;;18.20;9.70;;;;;;;23.11;39.99;99311.66;108858;1281;22537;-87
2022/05/01 12:17:18;;;;;;;19.90;11.70;;;;;;;23.02;40.25;99308.99;109062;1279;23177;-84
2022/05/01 12:19:49;;;;;;;18.20;9.80;;;;;;;22.99;40.00;99305.67;108993;1281;23099;-87
2022/05/01 12:22:23;;;;;;;17.30;9.40;;;;;;;22.87;39.81;99306.27;109049;1280;22407;-84
2022/05/01 12:25:10;;;;;;;;;;;;;;;;;;;;;
2022/05/01 12:28:10;;;;;;;16.90;9.20;;;;;;;22.87;39.71;99305.77;109060;1279;23272;-84
2022/05/01 12:30:34;;;;;;;20.20;9.10;;;;;;;22.72;39.60;99300.66;109048;1279;22529;-87
2022/05/01 12:33:29;;;;;;;17.10;9.70;;;;;;;22.58;39.68;99300.88;109014;1279;22186;-84
2022/05/01 12:36:10;;;;;;;17.00;8.50;;;;;;;22.40;39.56;99289.94;109106;1279;22593;-86
2022/05/01 12:38:56;;;;;;;20.20;10.00;;;;;;;22.22;39.36;99290.81;109122;1277;22559;-86
2022/05/01 12:45:53;;;;;;;17.40;8.40;;;;;;;22.46;39.87;99289.64;109290;1279;22507;-84
2022/05/01 12:48:23;;;;;;;16.40;8.60;;;;;;;22.71;39.53;99286.78;109283;1278;22411;-83
2022/05/01 12:51:18;;;;;;;17.40;8.90;;;;;;;22.66;39.22;99287.23;109263;1280;22355;-84
2022/05/01 12:53:45;;;;;;;17.70;8.00;;;;;;;22.66;39.34;99285.64;109042;1280;22909;-82
2022/05/01 12:56:21;;;;;;;17.00;10.10;;;;;;;22.69;38.93;99279.96;108996;1279;22507;-83
2022/05/01 12:58:50;;;;;;;16.70;8.00;;;;;;;22.62;39.34;99279.00;109123;1279;22454;-82
2022/05/01 13:01:22;;;;;;;13.10;7.50;;;;;;;22.68;39.12;99282.08;109052;1277;22190;-83
2022/05/01 13:03:50;;;;;;;18.60;9.90;;;;;;;22.77;39.38;99279.41;109290;1277;22458;-86
2022/05/01 13:09:51;;;;;;;18.80;9.70;;;;;;;22.88;38.80;99271.86;109115;1278;23208;-84
2022/05/01 13:12:34;;;;;;;16.30;8.40;;;;;;;22.83;38.05;99269.41;109324;1277;22512;-83